Time;durP1;ratioP1;P1;durP2;ratioP2;P2;SDS_P1;SDS_P2;PMS_P1;PMS_P2;Temp;Humidity;BMP_temperature;BMP_pressure;BME280_temperature;BME280_humidity;BME280_pressure;Samples;Min_cycle;Max_cycle;Signal;HPM_P1;HPM_P2
2021/05/10 00:02:24;;;;;;;3.60;2.03;;;19.70;67.00;;;;;;5051213;28;20432;-46
2021/05/10 00:04:50;;;;;;;3.10;2.20;;;19.40;66.60;;;;;;5052004;28;20811;-47
2021/05/10 00:07:16;;;;;;;3.30;2.00;;;19.40;66.60;;;;;;5051347;28;20478;-46
2021/05/10 00:09:43;;;;;;;3.13;2.03;;;19.20;66.50;;;;;;5051561;28;20590;-46
2021/05/10 00:12:09;;;;;;;7.33;2.40;;;19.30;66.60;;;;;;5051419;28;20441;-46
2021/05/10 00:14:41;;;;;;;2.53;2.00;;;19.10;66.50;;;;;;5051086;28;20440;-47
2021/05/10 00:17:07;;;;;;;4.53;2.77;;;19.20;66.70;;;;;;5051426;28;20515;-46
2021/05/10 00:19:34;;;;;;;2.50;2.30;;;19.30;67.00;;;;;;5033324;28;20459;-47
2021/05/10 00:22:00;;;;;;;7.10;2.60;;;19.10;66.90;;;;;;5051488;28;20452;-46
2021/05/10 00:24:27;;;;;;;3.37;2.20;;;19.40;67.50;;;;;;5050933;28;20469;-47
2021/05/10 00:26:53;;;;;;;4.60;2.50;;;19.10;67.00;;;;;;5051375;28;20827;-47
2021/05/10 00:29:20;;;;;;;3.23;2.53;;;19.30;67.80;;;;;;5033346;28;20510;-47
2021/05/10 00:31:47;;;;;;;3.83;2.33;;;19.10;68.40;;;;;;5051170;28;20433;-47
2021/05/10 00:34:14;;;;;;;2.60;2.13;;;19.00;67.70;;;;;;5050785;28;20442;-47
2021/05/10 00:36:41;;;;;;;2.87;2.40;;;19.00;67.80;;;;;;5051035;28;20462;-47
2021/05/10 00:39:07;;;;;;;2.37;1.93;;;19.00;67.80;;;;;;5051255;28;20484;-46
2021/05/10 00:41:34;;;;;;;3.27;2.40;;;19.30;68.20;;;;;;5051104;28;20431;-46
2021/05/10 00:44:01;;;;;;;3.43;2.50;;;19.10;68.20;;;;;;5050898;28;20449;-47
2021/05/10 00:46:27;;;;;;;2.60;2.40;;;19.00;68.30;;;;;;5051312;28;20447;-46
2021/05/10 00:48:54;;;;;;;5.03;2.37;;;19.10;68.50;;;;;;5051223;28;20927;-47
2021/05/10 00:51:20;;;;;;;4.67;2.30;;;19.00;68.60;;;;;;5052777;28;20497;-45
2021/05/10 00:53:47;;;;;;;2.67;2.40;;;18.80;68.50;;;;;;5051505;28;20448;-46
2021/05/10 00:56:14;;;;;;;2.13;1.80;;;18.90;68.60;;;;;;5051221;28;20454;-44
2021/05/10 00:58:41;;;;;;;5.43;2.03;;;18.90;68.70;;;;;;5051343;28;20851;-45
2021/05/10 01:01:07;;;;;;;2.43;2.23;;;18.90;68.80;;;;;;5053600;28;20470;-46
2021/05/10 01:03:34;;;;;;;4.10;2.47;;;18.90;68.90;;;;;;5054345;28;20579;-46
2021/05/10 01:06:01;;;;;;;3.23;2.40;;;18.90;69.00;;;;;;5054640;28;20543;-46
2021/05/10 01:08:27;;;;;;;3.50;2.27;;;18.70;68.80;;;;;;5054504;28;20458;-45
2021/05/10 01:10:54;;;;;;;2.80;2.10;;;18.60;68.80;;;;;;5036642;28;20538;-46
2021/05/10 01:13:20;;;;;;;4.23;2.77;;;18.90;69.20;;;;;;5054272;28;20430;-45
2021/05/10 01:15:50;;;;;;;2.70;2.30;;;18.70;69.00;;;;;;5054279;28;20458;-46
2021/05/10 01:18:17;;;;;;;4.53;2.53;;;18.70;69.10;;;;;;5054314;28;20450;-46
2021/05/10 01:20:46;;;;;;;4.17;2.53;;;18.80;69.30;;;;;;5054252;28;20501;-46
2021/05/10 01:23:13;;;;;;;4.50;2.87;;;18.70;69.20;;;;;;5053782;28;20469;-46
2021/05/10 01:25:40;;;;;;;5.10;2.43;;;18.80;69.50;;;;;;5053925;28;20517;-45
2021/05/10 01:28:06;;;;;;;3.40;2.30;;;18.20;68.80;;;;;;5054167;28;20466;-45
2021/05/10 01:30:34;;;;;;;4.23;2.73;;;18.60;69.30;;;;;;5054074;28;20528;-46
2021/05/10 01:33:03;;;;;;;2.97;2.20;;;18.60;69.30;;;;;;5053596;28;20468;-47
2021/05/10 01:35:32;;;;;;;4.20;2.20;;;18.60;69.30;;;;;;5053805;28;20500;-46
2021/05/10 01:37:59;;;;;;;3.03;2.33;;;18.30;69.00;;;;;;5053789;28;20458;-46
2021/05/10 01:40:27;;;;;;;3.50;2.23;;;18.50;69.30;;;;;;5053772;28;20485;-47
2021/05/10 01:42:54;;;;;;;3.20;2.77;;;18.50;69.30;;;;;;5053669;28;20430;-47
2021/05/10 01:45:20;;;;;;;3.40;2.43;;;18.40;69.10;;;;;;5053686;28;20454;-47
2021/05/10 01:47:46;;;;;;;3.83;2.50;;;18.40;69.20;;;;;;5053778;28;20525;-46
2021/05/10 01:50:15;;;;;;;2.70;2.40;;;18.30;69.10;;;;;;5053690;28;20465;-46
2021/05/10 01:52:41;;;;;;;3.80;2.47;;;18.30;69.20;;;;;;5053278;28;20463;-47
2021/05/10 01:55:09;;;;;;;6.03;2.53;;;18.30;69.20;;;;;;5035811;28;20486;-46
2021/05/10 01:57:37;;;;;;;2.30;2.00;;;18.50;69.50;;;;;;5053734;28;20462;-45
2021/05/10 02:00:08;;;;;;;4.93;2.53;;;18.40;69.40;;;;;;5053326;28;20564;-47
2021/05/10 02:02:34;;;;;;;3.00;2.40;;;18.50;69.60;;;;;;5053178;28;20868;-47
2021/05/10 02:05:16;;;;;;;4.27;2.07;;;17.80;68.90;;;;;;5054093;28;20985;-48
2021/05/10 02:07:44;;;;;;;4.40;2.40;;;18.30;69.50;;;;;;5050411;28;20453;-46
2021/05/10 02:10:12;;;;;;;5.13;2.30;;;18.20;69.30;;;;;;5055173;28;20434;-46
2021/05/10 02:12:39;;;;;;;2.93;2.20;;;18.40;69.60;;;;;;5052583;28;20461;-46
2021/05/10 02:15:09;;;;;;;4.17;2.67;;;18.40;69.70;;;;;;5053129;28;20430;-46
2021/05/10 02:17:36;;;;;;;4.53;2.80;;;18.30;69.70;;;;;;5035482;28;20449;-45
2021/05/10 02:20:06;;;;;;;3.37;2.23;;;18.10;69.60;;;;;;5053614;28;20496;-45
2021/05/10 02:22:33;;;;;;;10.00;2.50;;;18.30;70.00;;;;;;5053181;28;20440;-46
2021/05/10 02:24:59;;;;;;;6.60;2.70;;;18.10;69.80;;;;;;5053089;28;20529;-46
2021/05/10 02:27:25;;;;;;;2.50;2.17;;;17.50;69.10;;;;;;5035414;28;21083;-46
2021/05/10 02:29:52;;;;;;;5.20;2.90;;;18.30;70.20;;;;;;5053022;28;20976;-46
2021/05/10 02:32:19;;;;;;;7.33;1.90;;;17.80;69.60;;;;;;5052959;28;20524;-46
2021/05/10 02:34:45;;;;;;;5.80;2.20;;;17.40;69.30;;;;;;5052871;28;21032;-46
2021/05/10 02:37:12;;;;;;;3.00;1.83;;;17.80;69.80;;;;;;5052736;28;20527;-45
2021/05/10 02:39:38;;;;;;;5.20;2.23;;;17.70;69.80;;;;;;5052559;28;20469;-46
2021/05/10 02:42:05;;;;;;;4.30;2.40;;;17.60;69.70;;;;;;5052728;28;20440;-46
2021/05/10 02:44:32;;;;;;;4.80;2.10;;;17.90;70.10;;;;;;5052321;28;20445;-46
2021/05/10 02:46:59;;;;;;;3.20;2.80;;;17.90;70.20;;;;;;5052491;28;20482;-46
2021/05/10 02:49:25;;;;;;;4.80;2.30;;;17.80;70.10;;;;;;5052622;28;20492;-47
2021/05/10 02:51:51;;;;;;;3.53;2.47;;;17.60;70.00;;;;;;5052669;28;20514;-47
2021/05/10 02:54:17;;;;;;;4.83;2.50;;;17.20;69.60;;;;;;5052518;28;20519;-47
2021/05/10 02:56:43;;;;;;;7.53;3.53;;;17.80;70.30;;;;;;5052477;28;20441;-46
2021/05/10 02:59:10;;;;;;;3.40;2.10;;;17.80;70.30;;;;;;5052335;28;20440;-46
2021/05/10 03:01:36;;;;;;;3.37;2.13;;;17.60;70.10;;;;;;5052517;28;20898;-44
2021/05/10 03:04:03;;;;;;;3.10;2.40;;;17.70;70.30;;;;;;5051811;28;20457;-45
2021/05/10 03:06:29;;;;;;;7.87;3.30;;;17.50;70.10;;;;;;5052110;28;20954;-45
2021/05/10 03:08:56;;;;;;;5.37;2.57;;;17.50;70.10;;;;;;5052254;28;20439;-45
2021/05/10 03:11:22;;;;;;;3.20;2.13;;;17.50;70.30;;;;;;5052207;28;20424;-45
2021/05/10 03:13:48;;;;;;;6.37;2.83;;;17.80;70.50;;;;;;5051679;28;20947;-46
2021/05/10 03:16:14;;;;;;;7.23;2.50;;;17.40;70.10;;;;;;5051974;28;20924;-44
2021/05/10 03:18:41;;;;;;;8.90;2.40;;;17.50;70.10;;;;;;5051842;28;20430;-46
2021/05/10 03:21:09;;;;;;;4.67;2.10;;;17.80;70.40;;;;;;5033852;28;20867;-46
2021/05/10 03:23:35;;;;;;;2.17;1.97;;;17.40;70.00;;;;;;5051489;28;20508;-47
2021/05/10 03:26:01;;;;;;;6.57;2.20;;;17.50;70.10;;;;;;5051535;28;21007;-46
2021/05/10 03:28:27;;;;;;;3.20;2.17;;;17.40;69.80;;;;;;5054494;28;20441;-47
2021/05/10 03:30:54;;;;;;;6.40;3.33;;;17.30;69.60;;;;;;5052248;28;20441;-46
2021/05/10 03:33:20;;;;;;;4.17;2.40;;;17.40;69.70;;;;;;5051378;28;20539;-45
2021/05/10 03:35:46;;;;;;;3.10;2.30;;;17.50;69.80;;;;;;5051921;28;20460;-46
2021/05/10 03:38:13;;;;;;;3.80;2.17;;;17.30;69.50;;;;;;5051972;28;20430;-46
2021/05/10 03:40:40;;;;;;;6.03;2.37;;;17.50;69.70;;;;;;5051687;28;20502;-47
2021/05/10 03:43:06;;;;;;;2.93;2.20;;;17.40;69.50;;;;;;5051530;28;20867;-47
2021/05/10 03:45:34;;;;;;;3.93;2.23;;;17.40;69.60;;;;;;5051414;28;20465;-45
2021/05/10 03:48:01;;;;;;;2.70;2.10;;;17.50;70.40;;;;;;5051646;28;20436;-46
2021/05/10 03:50:27;;;;;;;5.70;3.40;;;16.90;68.90;;;;;;5051919;28;20464;-45
2021/05/10 03:52:53;;;;;;;3.90;2.20;;;17.40;69.50;;;;;;5052022;28;20440;-45
2021/05/10 03:55:22;;;;;;;7.33;2.80;;;17.30;69.40;;;;;;5034001;28;20465;-47
2021/05/10 03:57:49;;;;;;;3.70;2.30;;;17.40;69.50;;;;;;5053717;28;20490;-46
2021/05/10 04:00:18;;;;;;;4.13;1.93;;;17.40;69.50;;;;;;5052853;28;20480;-44
2021/05/10 04:02:45;;;;;;;2.37;2.13;;;17.50;69.60;;;;;;5050931;28;20461;-46
2021/05/10 04:05:19;;;;;;;5.97;2.33;;;17.50;69.60;;;;;;5051400;28;20600;-45
2021/05/10 04:07:51;;;;;;;4.33;3.40;;;17.50;69.50;;;;;;5051202;28;20532;-45
2021/05/10 04:10:37;;;;;;;5.13;2.57;;;17.50;69.40;;;;;;5051245;28;20423;-46
2021/05/10 04:15:48;;;;;;;4.37;2.67;;;17.40;69.20;;;;;;5051251;28;20535;-45
2021/05/10 04:18:14;;;;;;;3.03;2.47;;;17.50;69.10;;;;;;5051052;28;20491;-48
2021/05/10 04:20:40;;;;;;;7.53;2.60;;;17.70;69.20;;;;;;5033387;28;20479;-47
2021/05/10 04:23:07;;;;;;;2.40;2.10;;;17.60;68.80;;;;;;5050934;28;20433;-47
2021/05/10 04:25:34;;;;;;;2.93;2.23;;;17.80;68.60;;;;;;5051219;28;20480;-45
2021/05/10 04:28:00;;;;;;;3.33;2.40;;;17.60;68.00;;;;;;5050894;28;21146;-45
2021/05/10 04:30:26;;;;;;;3.50;2.63;;;17.50;67.60;;;;;;5051759;28;20787;-48
2021/05/10 04:32:57;;;;;;;5.10;2.17;;;18.10;67.90;;;;;;5050481;28;20444;-47
2021/05/10 04:35:23;;;;;;;2.87;2.40;;;18.20;67.60;;;;;;5052970;28;20875;-46
2021/05/10 04:37:49;;;;;;;3.53;2.47;;;18.40;67.40;;;;;;5055080;28;20438;-47
2021/05/10 04:40:16;;;;;;;3.70;2.33;;;18.20;66.70;;;;;;5055047;28;20587;-46
2021/05/10 04:42:43;;;;;;;5.00;2.20;;;18.40;66.70;;;;;;5054480;28;20444;-46
2021/05/10 04:45:11;;;;;;;2.50;1.93;;;18.50;66.40;;;;;;5055210;28;20840;-46
2021/05/10 04:47:37;;;;;;;6.93;2.47;;;18.60;66.30;;;;;;5056579;28;20441;-48
2021/05/10 04:50:05;;;;;;;8.70;2.53;;;18.40;65.70;;;;;;5054873;28;20865;-47
2021/05/10 04:52:32;;;;;;;4.13;2.37;;;18.80;65.80;;;;;;5054199;28;20433;-47
2021/05/10 04:54:59;;;;;;;18.20;2.80;;;18.40;65.10;;;;;;5054644;28;20443;-48
2021/05/10 04:57:25;;;;;;;5.47;2.07;;;18.70;65.10;;;;;;5054607;28;20449;-47
2021/05/10 04:59:52;;;;;;;5.00;2.30;;;18.60;64.70;;;;;;5054375;28;20473;-45
2021/05/10 05:02:18;;;;;;;4.40;2.70;;;19.00;64.90;;;;;;5054369;28;20430;-45
2021/05/10 05:04:45;;;;;;;3.20;1.93;;;18.60;64.20;;;;;;5036479;28;20458;-44
2021/05/10 05:07:11;;;;;;;3.00;2.17;;;19.10;64.40;;;;;;5054456;28;20987;-46
2021/05/10 05:09:37;;;;;;;4.07;2.50;;;19.10;63.90;;;;;;5054881;28;20492;-47
2021/05/10 05:12:04;;;;;;;4.40;2.27;;;19.40;63.90;;;;;;5054315;28;20438;-46
2021/05/10 05:14:30;;;;;;;4.90;2.53;;;19.20;63.30;;;;;;5054082;28;20465;-45
2021/05/10 05:16:57;;;;;;;8.37;2.50;;;19.40;63.10;;;;;;5053978;28;20972;-46
2021/05/10 05:19:24;;;;;;;4.17;2.43;;;19.40;62.70;;;;;;5053898;28;20505;-47
2021/05/10 05:21:51;;;;;;;4.20;2.33;;;19.20;62.00;;;;;;5054205;28;20478;-47
2021/05/10 05:24:17;;;;;;;4.90;2.53;;;19.70;62.20;;;;;;5054227;28;20991;-46
2021/05/10 05:26:43;;;;;;;4.97;2.40;;;19.80;62.20;;;;;;5079172;22;20490;-46
2021/05/10 05:29:10;;;;;;;4.23;3.27;;;19.60;61.70;;;;;;5072724;28;20426;-46
2021/05/10 05:31:36;;;;;;;5.73;2.47;;;19.80;61.80;;;;;;5072813;28;20743;-46
2021/05/10 05:34:03;;;;;;;5.03;2.43;;;19.90;61.60;;;;;;5072066;28;20454;-46
2021/05/10 05:36:30;;;;;;;6.63;2.40;;;20.10;61.40;;;;;;5054038;28;20472;-46
2021/05/10 05:38:56;;;;;;;4.50;2.17;;;19.90;60.90;;;;;;5072553;28;20434;-46
2021/05/10 05:41:23;;;;;;;3.40;2.40;;;20.00;60.80;;;;;;5072509;28;20470;-45
2021/05/10 05:43:49;;;;;;;4.73;2.90;;;20.10;60.70;;;;;;5072230;28;20812;-45
2021/05/10 05:46:20;;;;;;;6.30;2.67;;;20.30;60.70;;;;;;5071642;28;20750;-45
2021/05/10 05:48:46;;;;;;;5.20;2.80;;;19.90;60.40;;;;;;5072112;28;20527;-45
2021/05/10 05:51:13;;;;;;;7.70;2.73;;;20.30;59.80;;;;;;5072314;28;20444;-45
2021/05/10 05:53:40;;;;;;;10.97;2.50;;;20.20;59.50;;;;;;5071932;28;20428;-46
2021/05/10 05:56:06;;;;;;;2.47;2.03;;;20.60;59.60;;;;;;5071515;28;20456;-44
2021/05/10 05:58:33;;;;;;;3.77;2.40;;;20.50;59.30;;;;;;5072332;28;20460;-46
2021/05/10 06:00:59;;;;;;;4.53;2.27;;;20.70;59.20;;;;;;5072341;28;21006;-47
2021/05/10 06:03:25;;;;;;;5.50;2.17;;;20.80;59.00;;;;;;5071826;28;20437;-47
2021/05/10 06:05:52;;;;;;;3.13;2.17;;;20.80;58.80;;;;;;5053514;28;20541;-46
2021/05/10 06:08:19;;;;;;;6.60;2.80;;;20.70;58.70;;;;;;5072120;28;20429;-45
2021/05/10 06:10:46;;;;;;;7.40;2.30;;;20.40;58.30;;;;;;5072068;28;20485;-45
2021/05/10 06:13:12;;;;;;;8.80;3.67;;;20.70;58.40;;;;;;5071614;28;20494;-46
2021/05/10 06:15:39;;;;;;;5.93;2.90;;;20.70;58.40;;;;;;5071811;28;20983;-47
2021/05/10 06:18:08;;;;;;;4.53;2.40;;;20.90;58.40;;;;;;5071898;28;20586;-46
2021/05/10 06:20:34;;;;;;;6.90;2.70;;;20.70;58.30;;;;;;5071858;28;20468;-46
2021/05/10 06:23:02;;;;;;;7.80;2.00;;;20.90;58.50;;;;;;5071571;28;20427;-45
2021/05/10 06:25:30;;;;;;;5.13;2.20;;;20.70;58.10;;;;;;5071418;28;20460;-45
2021/05/10 06:27:56;;;;;;;7.67;2.67;;;20.80;58.10;;;;;;5071536;28;20436;-46
2021/05/10 06:30:22;;;;;;;6.33;2.97;;;21.00;58.20;;;;;;5071408;28;20507;-46
2021/05/10 06:32:50;;;;;;;4.40;2.33;;;20.90;58.10;;;;;;5053170;28;20448;-46
2021/05/10 06:35:17;;;;;;;3.77;2.47;;;20.50;57.60;;;;;;5071470;28;20431;-47
2021/05/10 06:37:44;;;;;;;5.80;2.67;;;20.80;57.60;;;;;;5071319;28;20431;-47
2021/05/10 06:40:11;;;;;;;5.00;2.53;;;20.80;57.70;;;;;;5071523;28;20488;-47
2021/05/10 06:42:38;;;;;;;3.90;2.13;;;21.30;58.00;;;;;;5071345;28;20457;-46
2021/05/10 06:45:07;;;;;;;5.33;2.20;;;21.00;57.70;;;;;;5071551;28;20444;-46
2021/05/10 06:47:33;;;;;;;9.60;3.07;;;21.30;57.90;;;;;;5071339;28;20478;-47
2021/05/10 06:50:00;;;;;;;4.63;2.40;;;21.10;57.30;;;;;;5071787;28;20808;-47
2021/05/10 06:52:26;;;;;;;7.43;2.50;;;21.10;57.40;;;;;;5071897;28;20423;-45
2021/05/10 06:54:52;;;;;;;4.83;1.90;;;21.00;57.30;;;;;;5072130;28;20433;-45
2021/05/10 06:57:19;;;;;;;3.93;2.33;;;21.00;57.20;;;;;;5071777;28;20448;-45
2021/05/10 06:59:46;;;;;;;5.10;2.20;;;20.90;57.10;;;;;;5071757;28;20999;-46
2021/05/10 07:02:12;;;;;;;3.83;2.03;;;20.80;57.70;;;;;;5055328;28;20569;-45
2021/05/10 07:04:38;;;;;;;10.93;2.37;;;21.00;57.30;;;;;;5074010;28;20795;-46
2021/05/10 07:07:05;;;;;;;3.60;2.43;;;21.10;57.40;;;;;;5072832;28;20453;-45
2021/05/10 07:09:31;;;;;;;5.90;2.37;;;21.00;57.40;;;;;;5071927;28;20433;-45
2021/05/10 07:11:58;;;;;;;3.40;2.30;;;20.80;57.10;;;;;;5053413;28;20442;-45
2021/05/10 07:14:24;;;;;;;3.13;2.20;;;21.40;57.60;;;;;;5070973;28;20464;-46
2021/05/10 07:16:51;;;;;;;4.77;2.20;;;21.20;57.60;;;;;;5071353;28;20761;-46
2021/05/10 07:19:18;;;;;;;3.80;2.30;;;20.80;57.20;;;;;;5071469;28;20523;-48
2021/05/10 07:21:44;;;;;;;5.63;2.20;;;21.50;57.70;;;;;;5071337;28;20481;-45
2021/05/10 07:24:10;;;;;;;5.90;3.70;;;21.40;57.70;;;;;;5052724;28;20449;-46
2021/05/10 07:26:36;;;;;;;4.90;2.80;;;21.70;57.80;;;;;;5070959;28;20522;-47
2021/05/10 07:29:05;;;;;;;7.57;2.47;;;21.30;57.40;;;;;;5071483;28;20937;-46
2021/05/10 07:31:31;;;;;;;5.83;2.10;;;21.50;57.40;;;;;;5070965;28;20470;-46
2021/05/10 07:33:58;;;;;;;3.93;2.37;;;21.50;57.30;;;;;;5052669;28;20454;-46
2021/05/10 07:36:24;;;;;;;4.40;2.13;;;21.80;57.40;;;;;;5070686;28;20825;-45
2021/05/10 07:38:51;;;;;;;3.80;1.93;;;21.70;57.30;;;;;;5071016;28;20435;-47
2021/05/10 07:41:17;;;;;;;3.83;2.30;;;21.70;57.30;;;;;;5070603;28;20997;-46
2021/05/10 07:43:43;;;;;;;3.90;2.37;;;21.40;57.20;;;;;;5070875;28;20485;-46
2021/05/10 07:46:10;;;;;;;8.60;2.40;;;21.70;57.40;;;;;;5052467;28;20468;-46
2021/05/10 07:48:36;;;;;;;5.77;2.83;;;21.50;57.20;;;;;;5070828;28;20891;-48
2021/05/10 07:51:03;;;;;;;4.80;2.67;;;21.50;57.30;;;;;;5071043;28;20443;-47
2021/05/10 07:53:29;;;;;;;5.00;2.87;;;21.70;57.60;;;;;;5070354;28;20798;-46
2021/05/10 07:55:56;;;;;;;3.47;2.47;;;21.90;57.70;;;;;;5071157;28;20460;-46
2021/05/10 07:58:22;;;;;;;4.57;2.33;;;21.20;57.20;;;;;;5052861;28;20470;-45
2021/05/10 08:00:53;;;;;;;3.00;2.30;;;21.40;57.10;;;;;;5071254;28;20461;-47
2021/05/10 08:03:20;;;;;;;4.70;1.97;;;22.10;57.70;;;;;;5070888;28;20801;-46
2021/05/10 08:05:47;;;;;;;4.80;3.10;;;21.80;57.30;;;;;;5070990;28;20461;-46
2021/05/10 08:08:17;;;;;;;8.53;2.63;;;21.60;57.20;;;;;;5070825;28;20431;-47
2021/05/10 08:10:43;;;;;;;6.30;2.80;;;21.90;57.50;;;;;;5054790;28;20453;-45
2021/05/10 08:13:10;;;;;;;4.00;2.20;;;22.00;57.60;;;;;;5074587;28;20435;-46
2021/05/10 08:15:37;;;;;;;4.50;3.13;;;22.10;57.80;;;;;;5056868;28;20505;-46
2021/05/10 08:18:04;;;;;;;4.27;2.87;;;22.10;57.80;;;;;;5074903;28;20892;-46
2021/05/10 08:20:31;;;;;;;4.23;2.20;;;22.00;57.80;;;;;;5074939;28;21005;-46
2021/05/10 08:22:57;;;;;;;3.83;1.93;;;22.10;58.40;;;;;;5074244;28;20430;-47
2021/05/10 08:25:25;;;;;;;4.27;2.00;;;21.80;57.20;;;;;;5074142;28;20884;-46
2021/05/10 08:27:51;;;;;;;9.20;2.90;;;21.90;57.30;;;;;;5074859;28;20442;-47
2021/05/10 08:30:19;;;;;;;7.60;2.47;;;22.10;57.50;;;;;;5074525;28;20489;-47
2021/05/10 08:32:45;;;;;;;5.60;2.33;;;22.20;57.60;;;;;;5073828;28;20437;-46
2021/05/10 08:35:12;;;;;;;5.10;2.60;;;22.10;57.50;;;;;;5056121;28;20815;-46
2021/05/10 08:37:39;;;;;;;5.80;2.60;;;22.10;57.60;;;;;;5074250;28;20438;-46
2021/05/10 08:40:07;;;;;;;5.70;2.10;;;22.10;57.70;;;;;;5074097;28;20506;-47
2021/05/10 08:42:35;;;;;;;9.10;2.50;;;22.00;57.30;;;;;;5055881;28;20513;-47
2021/05/10 08:45:01;;;;;;;8.00;2.40;;;22.10;57.40;;;;;;5074123;28;20442;-46
2021/05/10 08:47:32;;;;;;;6.00;2.47;;;22.20;57.50;;;;;;5074255;28;20525;-46
2021/05/10 08:49:59;;;;;;;9.20;2.83;;;22.40;57.60;;;;;;5074376;28;20506;-46
2021/05/10 08:52:26;;;;;;;3.23;2.40;;;22.20;57.40;;;;;;5073211;28;20985;-47
2021/05/10 08:54:54;;;;;;;4.60;2.67;;;22.30;57.20;;;;;;5073901;28;20434;-47
2021/05/10 08:57:21;;;;;;;4.30;1.87;;;22.10;57.10;;;;;;5073340;28;20499;-46
2021/05/10 08:59:49;;;;;;;3.37;2.20;;;22.50;57.40;;;;;;5073891;28;20441;-46
2021/05/10 09:02:15;;;;;;;5.63;2.50;;;22.30;57.30;;;;;;5073562;28;20506;-47
2021/05/10 09:04:43;;;;;;;4.87;3.20;;;22.20;57.10;;;;;;5073737;28;20576;-46
2021/05/10 09:07:14;;;;;;;2.70;2.13;;;22.70;57.40;;;;;;5074124;28;20450;-46
2021/05/10 09:09:54;;;;;;;4.90;2.50;;;22.40;57.10;;;;;;5074463;28;20437;-47
2021/05/10 09:12:22;;;;;;;3.90;2.57;;;22.80;57.50;;;;;;5073648;28;20438;-46
2021/05/10 09:14:50;;;;;;;4.47;2.80;;;22.60;57.40;;;;;;5073815;28;20504;-45
2021/05/10 09:17:17;;;;;;;9.53;2.47;;;22.40;57.30;;;;;;5073682;28;20456;-46
2021/05/10 09:19:48;;;;;;;6.23;2.67;;;22.90;57.60;;;;;;5073702;28;20919;-46
2021/05/10 09:22:15;;;;;;;3.93;2.97;;;22.90;57.40;;;;;;5073319;28;20479;-47
2021/05/10 09:24:49;;;;;;;6.63;2.67;;;22.70;57.10;;;;;;5072893;28;20433;-47
2021/05/10 09:27:19;;;;;;;6.07;2.93;;;22.90;57.30;;;;;;5072820;28;21045;-46
2021/05/10 09:29:46;;;;;;;4.80;3.10;;;22.90;57.30;;;;;;5073646;28;20488;-46
2021/05/10 09:32:26;;;;;;;8.30;2.70;;;22.50;57.00;;;;;;5073223;28;20450;-46
2021/05/10 09:35:31;;;;;;;5.50;2.30;;;23.10;57.30;;;;;;5073320;28;20541;-46
2021/05/10 09:38:03;;;;;;;11.40;3.30;;;23.20;57.20;;;;;;5057427;28;20457;-46
2021/05/10 09:40:44;;;;;;;5.53;2.53;;;22.70;57.40;;;;;;5073204;28;20471;-46
2021/05/10 09:43:13;;;;;;;3.03;2.00;;;22.70;56.70;;;;;;5072542;28;20424;-45
2021/05/10 09:45:44;;;;;;;4.60;2.53;;;23.00;57.50;;;;;;5072874;28;20456;-47
2021/05/10 09:48:27;;;;;;;4.97;2.80;;;23.00;56.60;;;;;;5072565;28;20420;-47
2021/05/10 09:50:56;;;;;;;5.70;2.77;;;23.20;56.70;;;;;;5072475;28;20857;-46
2021/05/10 09:53:31;;;;;;;6.27;2.93;;;23.10;56.70;;;;;;5072668;28;20473;-46
2021/05/10 09:55:59;;;;;;;5.17;2.40;;;23.50;56.80;;;;;;5072944;28;20957;-46
2021/05/10 09:58:36;;;;;;;2.93;2.37;;;23.30;56.60;;;;;;5072689;28;20435;-46
2021/05/10 10:01:02;;;;;;;11.73;3.00;;;23.40;56.80;;;;;;5072600;28;20479;-47
2021/05/10 10:03:40;;;;;;;5.10;2.60;;;23.40;56.50;;;;;;5072219;28;20464;-46
2021/05/10 10:06:09;;;;;;;3.97;2.50;;;23.70;56.40;;;;;;5054566;28;20571;-46
2021/05/10 10:08:37;;;;;;;4.20;2.57;;;23.60;56.20;;;;;;5054032;28;20444;-46
2021/05/10 10:11:05;;;;;;;4.43;2.50;;;23.80;56.40;;;;;;5072830;28;20468;-47
2021/05/10 10:13:31;;;;;;;3.40;2.13;;;23.70;56.20;;;;;;5072274;28;20433;-46
2021/05/10 10:15:59;;;;;;;5.37;2.33;;;23.80;56.30;;;;;;5072912;28;20464;-46
2021/05/10 10:18:27;;;;;;;4.57;2.03;;;24.20;56.40;;;;;;5071949;28;20520;-46
2021/05/10 10:20:56;;;;;;;5.37;4.07;;;23.90;55.80;;;;;;5072329;28;20503;-46
2021/05/10 10:23:26;;;;;;;5.23;2.80;;;24.00;55.60;;;;;;5053697;28;20803;-46
2021/05/10 10:25:55;;;;;;;4.93;2.00;;;23.70;55.40;;;;;;5071856;28;20464;-46
2021/05/10 10:28:23;;;;;;;6.10;2.10;;;23.90;55.30;;;;;;5071953;28;20437;-47
2021/05/10 10:31:13;;;;;;;5.47;2.90;;;24.20;55.40;;;;;;5071530;28;20455;-52
2021/05/10 10:33:46;;;;;;;3.30;2.07;;;24.10;54.70;;;;;;5071007;28;20822;-46
2021/05/10 10:36:23;;;;;;;3.90;2.30;;;24.00;54.80;;;;;;5071823;28;20523;-47
2021/05/10 10:39:10;;;;;;;4.03;2.43;;;24.10;55.10;;;;;;5071710;28;20457;-46
2021/05/10 10:41:55;;;;;;;7.50;2.40;;;24.10;55.30;;;;;;5071535;28;20468;-46
2021/05/10 10:44:34;;;;;;;3.93;2.70;;;24.30;54.80;;;;;;5071079;28;20442;-47
2021/05/10 10:47:02;;;;;;;5.40;2.50;;;24.20;54.90;;;;;;5071201;28;20468;-46
2021/05/10 10:49:31;;;;;;;3.40;1.87;;;24.20;54.80;;;;;;5071436;28;20539;-46
2021/05/10 10:51:59;;;;;;;3.87;2.83;;;24.20;54.50;;;;;;5071664;28;20421;-46
2021/05/10 10:54:27;;;;;;;5.63;2.70;;;24.30;54.50;;;;;;5070741;28;20919;-47
2021/05/10 10:56:57;;;;;;;4.53;3.27;;;24.40;54.60;;;;;;5071623;28;20464;-46
2021/05/10 10:59:29;;;;;;;7.53;2.90;;;24.70;54.90;;;;;;5071422;28;20947;-46
2021/05/10 11:01:57;;;;;;;3.60;2.00;;;24.50;54.70;;;;;;5071484;28;20472;-46
2021/05/10 11:04:28;;;;;;;6.90;2.63;;;24.50;54.60;;;;;;5071437;28;20441;-46
2021/05/10 11:06:55;;;;;;;4.53;2.53;;;24.70;54.80;;;;;;5071043;28;20453;-47
2021/05/10 11:09:51;;;;;;;3.60;2.63;;;24.60;54.60;;;;;;5071071;28;20426;-47
2021/05/10 11:12:51;;;;;;;4.40;2.17;;;24.70;54.30;;;;;;5071355;28;20430;-46
2021/05/10 11:15:46;;;;;;;5.33;3.20;;;25.10;54.30;;;;;;5071106;28;20896;-46
2021/05/10 11:18:44;;;;;;;4.03;2.20;;;24.80;53.90;;;;;;5071516;28;20432;-47
2021/05/10 11:21:41;;;;;;;3.50;2.10;;;24.90;53.70;;;;;;5071395;28;20519;-47
2021/05/10 11:24:11;;;;;;;5.13;3.23;;;24.90;53.60;;;;;;5070600;28;20961;-46
2021/05/10 11:26:39;;;;;;;4.80;2.40;;;24.60;53.60;;;;;;5084362;22;20491;-50
2021/05/10 11:29:07;;;;;;;3.43;2.00;;;24.90;53.90;;;;;;5051274;28;20793;-51
2021/05/10 11:31:37;;;;;;;6.87;3.13;;;25.00;53.80;;;;;;5050864;28;20434;-50
2021/05/10 11:34:15;;;;;;;5.33;2.67;;;25.00;53.70;;;;;;5049814;28;20568;-50
2021/05/10 11:36:51;;;;;;;7.30;2.47;;;24.80;53.40;;;;;;5032538;28;20515;-50
2021/05/10 11:39:25;;;;;;;6.00;3.00;;;25.10;53.20;;;;;;5050432;28;20495;-51
2021/05/10 11:41:57;;;;;;;7.70;2.50;;;25.00;52.70;;;;;;5050328;28;20974;-51
2021/05/10 11:44:26;;;;;;;4.50;2.40;;;25.30;51.50;;;;;;5031109;28;20567;-50
2021/05/10 11:46:53;;;;;;;3.67;2.27;;;25.80;52.40;;;;;;5049902;28;20450;-50
2021/05/10 11:49:28;;;;;;;4.70;2.40;;;25.10;51.90;;;;;;5050310;28;20431;-51
2021/05/10 11:51:58;;;;;;;4.30;2.87;;;25.50;52.40;;;;;;5050271;28;20437;-51
2021/05/10 11:54:25;;;;;;;2.77;2.47;;;25.60;51.50;;;;;;5049881;28;20422;-51
2021/05/10 11:56:54;;;;;;;5.00;2.23;;;26.00;51.80;;;;;;5050321;28;20458;-50
2021/05/10 11:59:32;;;;;;;5.10;2.50;;;25.70;51.80;;;;;;5050425;28;20953;-50
2021/05/10 12:01:59;;;;;;;4.43;2.70;;;25.60;51.40;;;;;;5050429;28;20478;-50
2021/05/10 12:04:27;;;;;;;7.63;2.53;;;25.40;51.40;;;;;;5050317;28;20514;-49
2021/05/10 12:06:55;;;;;;;8.03;2.80;;;25.70;51.40;;;;;;5049858;28;20454;-50
2021/05/10 12:09:43;;;;;;;5.50;2.40;;;25.80;51.10;;;;;;5049480;28;20461;-50
2021/05/10 12:12:24;;;;;;;3.30;2.53;;;26.00;50.90;;;;;;5049900;28;20427;-51
2021/05/10 12:14:52;;;;;;;3.70;2.30;;;26.20;50.60;;;;;;5049839;28;20470;-50
2021/05/10 12:17:20;;;;;;;4.03;2.43;;;26.20;50.50;;;;;;5049768;28;20928;-50
2021/05/10 12:20:06;;;;;;;3.90;2.10;;;26.20;50.30;;;;;;5049960;28;20562;-50
2021/05/10 12:22:35;;;;;;;5.37;2.20;;;26.30;50.00;;;;;;5049543;28;20496;-52
2021/05/10 12:25:14;;;;;;;5.43;2.00;;;26.20;50.10;;;;;;5031842;28;20675;-51
2021/05/10 12:27:43;;;;;;;3.47;2.43;;;26.20;49.80;;;;;;5049424;28;20528;-51
2021/05/10 12:30:17;;;;;;;3.80;2.63;;;26.00;49.60;;;;;;5049845;28;20431;-51
2021/05/10 12:32:46;;;;;;;3.57;2.57;;;26.20;49.60;;;;;;5049812;28;20429;-51
2021/05/10 12:35:13;;;;;;;4.30;2.30;;;26.20;49.80;;;;;;5049913;28;20434;-51
2021/05/10 12:37:41;;;;;;;5.73;2.23;;;26.10;49.60;;;;;;5049661;28;20458;-52
2021/05/10 12:40:11;;;;;;;4.27;2.23;;;26.20;49.50;;;;;;5049279;28;20493;-51
2021/05/10 12:42:38;;;;;;;6.33;4.23;;;26.40;49.70;;;;;;5049290;28;20608;-51
2021/05/10 12:45:07;;;;;;;2.47;1.93;;;26.10;49.60;;;;;;5049679;28;20418;-51
2021/05/10 12:47:39;;;;;;;4.33;2.33;;;26.10;49.40;;;;;;5047770;28;20565;-51
2021/05/10 12:50:05;;;;;;;6.40;2.03;;;26.20;49.40;;;;;;5049360;28;20426;-50
2021/05/10 12:52:48;;;;;;;3.60;2.00;;;26.30;49.50;;;;;;5049185;28;20446;-50
2021/05/10 12:55:22;;;;;;;6.67;2.67;;;26.20;49.50;;;;;;5049806;28;20426;-50
2021/05/10 12:57:50;;;;;;;4.47;2.13;;;26.40;49.70;;;;;;5052809;28;20426;-50